Time;durP1;ratioP1;P1;durP2;ratioP2;P2;SDS_P1;SDS_P2;PMS_P1;PMS_P2;Temp;Humidity;BMP_temperature;BMP_pressure;BME280_temperature;BME280_humidity;BME280_pressure;Samples;Min_cycle;Max_cycle;Signal;HPM_P1;HPM_P2
2023/01/07 00:01:41;;;;;;;68.72;33.95;;;8.70;99.90;;;;;;5122702;27;20030;-58
2023/01/07 00:04:10;;;;;;;67.95;33.78;;;8.70;99.90;;;;;;5134155;27;20146;-59
2023/01/07 00:06:38;;;;;;;73.18;34.45;;;8.80;99.90;;;;;;5133627;27;20037;-59
2023/01/07 00:09:06;;;;;;;66.60;33.83;;;8.90;99.90;;;;;;5134132;27;20360;-59
2023/01/07 00:11:35;;;;;;;67.30;33.80;;;8.90;99.90;;;;;;5114658;27;20051;-59
2023/01/07 00:14:02;;;;;;;67.63;33.97;;;9.00;99.90;;;;;;5137224;27;20039;-59
2023/01/07 00:16:30;;;;;;;68.05;34.63;;;9.10;99.90;;;;;;5136065;27;20075;-59
2023/01/07 00:18:58;;;;;;;62.45;34.65;;;9.20;99.90;;;;;;5115895;27;20059;-59
2023/01/07 00:21:25;;;;;;;73.80;34.72;;;9.20;99.90;;;;;;5111594;27;20042;-59
2023/01/07 00:24:03;;;;;;;64.70;33.72;;;9.20;99.90;;;;;;5132888;27;20047;-59
2023/01/07 00:26:31;;;;;;;66.97;33.70;;;9.30;99.90;;;;;;5133106;27;20058;-59
2023/01/07 00:28:57;;;;;;;60.22;31.80;;;9.40;99.90;;;;;;5117283;27;20067;-59
2023/01/07 00:31:28;;;;;;;62.70;32.00;;;9.40;99.90;;;;;;5135585;27;20035;-59
2023/01/07 00:36:24;;;;;;;61.15;31.85;;;9.50;99.90;;;;;;5130939;27;20938;-59
2023/01/07 00:38:58;;;;;;;61.13;31.55;;;9.50;99.90;;;;;;5123794;28;20686;-59
2023/01/07 00:41:24;;;;;;;63.05;31.67;;;9.50;99.90;;;;;;5133039;27;20706;-58
2023/01/07 00:43:49;;;;;;;50.83;27.92;;;9.60;99.90;;;;;;5143867;27;20038;-59
2023/01/07 00:46:15;;;;;;;53.38;28.20;;;9.60;99.90;;;;;;5144194;27;20813;-59
2023/01/07 00:48:43;;;;;;;58.75;30.02;;;9.60;99.90;;;;;;5144843;27;20114;-59
2023/01/07 00:51:10;;;;;;;59.45;29.38;;;9.60;99.90;;;;;;5143422;27;20051;-60
2023/01/07 00:53:36;;;;;;;61.70;29.73;;;9.60;99.90;;;;;;5142509;27;20039;-60
2023/01/07 00:56:01;;;;;;;53.85;29.40;;;9.70;99.90;;;;;;5123519;28;20050;-59
2023/01/07 00:58:27;;;;;;;57.83;28.90;;;9.70;99.90;;;;;;5127180;27;20042;-60
2023/01/07 01:00:58;;;;;;;55.05;28.75;;;9.70;99.90;;;;;;5144546;27;20038;-61
2023/01/07 01:03:26;;;;;;;57.53;29.67;;;9.70;99.90;;;;;;5129480;27;20053;-60
2023/01/07 01:05:52;;;;;;;62.30;29.38;;;9.80;99.90;;;;;;5145631;27;20051;-60
2023/01/07 01:08:19;;;;;;;59.80;28.95;;;9.80;99.90;;;;;;5147282;27;20034;-60
2023/01/07 01:10:44;;;;;;;60.33;29.42;;;9.70;99.90;;;;;;5147452;27;20031;-61
2023/01/07 01:13:13;;;;;;;59.53;28.80;;;9.80;99.90;;;;;;5148131;27;20374;-61
2023/01/07 01:15:45;;;;;;;56.53;29.45;;;9.80;99.90;;;;;;5148024;27;20265;-61
2023/01/07 01:18:11;;;;;;;56.30;28.77;;;9.80;99.90;;;;;;5147637;27;20522;-61
2023/01/07 01:20:37;;;;;;;58.75;29.08;;;9.80;99.90;;;;;;5146626;27;20133;-61
2023/01/07 01:23:03;;;;;;;57.55;28.55;;;9.80;99.90;;;;;;5147222;27;20035;-61
2023/01/07 01:25:29;;;;;;;57.65;28.20;;;9.90;99.90;;;;;;5147542;27;20353;-60
2023/01/07 01:27:54;;;;;;;55.47;28.50;;;9.90;99.90;;;;;;5147632;27;20077;-61
2023/01/07 01:30:20;;;;;;;53.33;27.88;;;9.90;99.90;;;;;;5145979;27;20037;-60
2023/01/07 01:32:46;;;;;;;57.42;29.35;;;9.90;99.90;;;;;;5129462;27;20523;-61
2023/01/07 01:35:11;;;;;;;53.38;27.65;;;10.00;99.90;;;;;;5146500;27;20034;-60
2023/01/07 01:37:37;;;;;;;53.92;27.33;;;10.00;99.90;;;;;;5128291;27;20104;-60
2023/01/07 01:40:05;;;;;;;52.58;27.75;;;10.00;99.90;;;;;;5146714;27;20046;-61
2023/01/07 01:42:32;;;;;;;48.88;27.00;;;10.00;99.90;;;;;;5148110;27;20043;-59
2023/01/07 01:45:02;;;;;;;54.13;28.10;;;10.00;99.90;;;;;;5111118;27;20545;-61
2023/01/07 01:47:32;;;;;;;51.47;27.25;;;10.10;99.90;;;;;;5146853;27;20043;-61
2023/01/07 01:50:13;;;;;;;53.90;28.08;;;10.10;99.90;;;;;;5146933;27;20031;-61
2023/01/07 01:52:47;;;;;;;47.83;26.35;;;10.10;99.90;;;;;;5147186;27;20110;-61
2023/01/07 01:55:17;;;;;;;46.78;25.73;;;10.10;99.90;;;;;;5128639;27;20159;-60
2023/01/07 01:57:45;;;;;;;51.13;26.40;;;10.10;99.90;;;;;;5147507;27;20078;-60
2023/01/07 02:00:11;;;;;;;53.08;27.08;;;10.20;99.90;;;;;;5109776;27;20560;-60
2023/01/07 02:02:45;;;;;;;51.78;27.05;;;10.20;99.90;;;;;;5128402;27;20049;-61
2023/01/07 02:05:11;;;;;;;51.75;27.45;;;10.20;99.90;;;;;;5146226;27;20126;-60
2023/01/07 02:07:37;;;;;;;49.13;26.23;;;10.20;99.90;;;;;;5146186;27;20159;-59
2023/01/07 02:10:19;;;;;;;43.85;25.63;;;10.20;99.90;;;;;;5146836;27;20031;-58
2023/01/07 02:13:03;;;;;;;49.97;26.27;;;10.20;99.90;;;;;;5126520;27;20146;-60
2023/01/07 02:15:40;;;;;;;50.92;27.45;;;10.20;99.90;;;;;;5127140;27;20104;-61
2023/01/07 02:18:43;;;;;;;45.58;25.55;;;10.30;99.90;;;;;;5147545;27;20122;-60
2023/01/07 02:21:20;;;;;;;47.05;26.67;;;10.20;99.90;;;;;;5145356;27;20042;-60
2023/01/07 02:24:26;;;;;;;48.17;27.35;;;10.20;99.90;;;;;;5145854;27;20047;-61
2023/01/07 02:27:09;;;;;;;43.15;26.25;;;10.30;99.90;;;;;;5121696;27;20062;-61
2023/01/07 02:29:43;;;;;;;43.75;25.73;;;10.30;99.90;;;;;;5145131;27;20408;-60
2023/01/07 02:32:24;;;;;;;44.75;26.92;;;10.30;99.90;;;;;;5128043;27;20065;-60
2023/01/07 02:35:22;;;;;;;42.53;27.17;;;10.30;99.90;;;;;;5126582;27;20051;-60
2023/01/07 02:38:14;;;;;;;42.30;26.05;;;10.30;99.90;;;;;;5145497;27;20077;-60
2023/01/07 02:40:57;;;;;;;42.75;27.27;;;10.40;99.90;;;;;;5146778;27;20662;-61
2023/01/07 02:43:41;;;;;;;41.25;26.95;;;10.40;99.90;;;;;;5144656;27;20043;-61
2023/01/07 02:46:22;;;;;;;40.90;26.55;;;10.40;99.90;;;;;;5145942;27;20076;-60
2023/01/07 02:48:48;;;;;;;40.75;26.20;;;10.40;99.90;;;;;;5145729;27;20047;-59
2023/01/07 02:51:13;;;;;;;39.00;26.60;;;10.40;99.90;;;;;;5144784;27;20548;-60
2023/01/07 02:53:42;;;;;;;37.88;26.48;;;10.40;99.90;;;;;;5145325;27;20061;-62
2023/01/07 02:56:51;;;;;;;39.50;27.70;;;10.40;99.90;;;;;;5145033;27;20038;-60
2023/01/07 02:59:44;;;;;;;39.38;24.58;;;10.50;99.90;;;;;;5145146;27;20121;-60
2023/01/07 03:02:43;;;;;;;38.17;27.45;;;10.40;99.90;;;;;;5146009;27;20039;-59
2023/01/07 03:05:32;;;;;;;39.08;25.33;;;10.40;99.90;;;;;;5127829;27;20419;-58
2023/01/07 03:08:26;;;;;;;38.08;25.45;;;10.40;99.90;;;;;;5144659;27;20053;-59
2023/01/07 03:11:00;;;;;;;35.53;25.98;;;10.40;99.90;;;;;;5146242;27;20326;-58
2023/01/07 03:13:52;;;;;;;33.97;25.67;;;10.40;99.90;;;;;;5126211;27;20072;-61
2023/01/07 03:16:31;;;;;;;34.78;26.02;;;10.40;99.90;;;;;;5115997;27;20053;-58
2023/01/07 03:19:02;;;;;;;34.00;24.95;;;10.50;99.90;;;;;;5145722;27;20168;-60
2023/01/07 03:21:31;;;;;;;35.85;25.75;;;10.40;99.90;;;;;;5143700;27;20057;-59
2023/01/07 03:23:58;;;;;;;36.03;25.35;;;10.40;99.90;;;;;;5125717;27;20119;-58
2023/01/07 03:26:29;;;;;;;31.70;24.55;;;10.40;99.90;;;;;;5143941;27;20171;-59
2023/01/07 03:28:57;;;;;;;31.92;23.73;;;10.40;99.90;;;;;;5144736;27;20099;-60
2023/01/07 03:31:23;;;;;;;35.53;25.50;;;10.50;99.90;;;;;;5144400;27;20671;-60
2023/01/07 03:33:54;;;;;;;35.08;25.60;;;10.40;99.90;;;;;;5144596;27;20031;-59
2023/01/07 03:36:24;;;;;;;33.55;24.83;;;10.40;99.90;;;;;;5143717;27;20043;-59
2023/01/07 03:38:51;;;;;;;32.10;23.77;;;10.40;99.90;;;;;;5144302;27;20298;-60
2023/01/07 03:44:01;;;;;;;33.33;23.25;;;10.30;99.90;;;;;;5136609;27;20043;-60
2023/01/07 03:46:27;;;;;;;35.92;24.40;;;10.30;99.90;;;;;;5145133;27;20074;-60
2023/01/07 03:48:52;;;;;;;33.13;23.95;;;10.30;99.90;;;;;;5144097;27;20042;-59
2023/01/07 03:51:20;;;;;;;34.95;24.92;;;10.30;99.90;;;;;;5143841;27;20051;-60
2023/01/07 03:53:46;;;;;;;33.25;23.48;;;10.30;99.90;;;;;;5141204;27;20043;-59
2023/01/07 03:56:11;;;;;;;27.98;21.73;;;10.40;99.90;;;;;;5124760;27;20050;-59
2023/01/07 03:58:37;;;;;;;32.28;23.60;;;10.30;99.90;;;;;;5139225;27;20154;-60
2023/01/07 04:01:03;;;;;;;29.45;22.60;;;10.40;99.90;;;;;;5144038;27;20075;-59
2023/01/07 04:03:28;;;;;;;32.88;22.27;;;10.40;99.90;;;;;;5126173;27;20038;-59
2023/01/07 04:05:54;;;;;;;33.58;23.30;;;10.40;99.90;;;;;;5143853;27;20052;-59
2023/01/07 04:08:19;;;;;;;32.92;23.42;;;10.40;99.90;;;;;;5141702;27;20031;-59
2023/01/07 04:10:45;;;;;;;35.50;23.30;;;10.40;99.90;;;;;;5145696;27;20061;-59
2023/01/07 04:13:10;;;;;;;33.28;23.98;;;10.40;99.90;;;;;;5144791;27;20039;-59
2023/01/07 04:15:36;;;;;;;33.85;23.50;;;10.40;99.90;;;;;;5143713;27;20540;-59
2023/01/07 04:18:01;;;;;;;34.83;22.50;;;10.40;99.90;;;;;;5145273;27;20590;-59
2023/01/07 04:20:27;;;;;;;34.15;22.83;;;10.40;99.90;;;;;;5141488;27;20057;-59
2023/01/07 04:22:52;;;;;;;32.95;23.83;;;10.40;99.90;;;;;;5125556;27;20038;-60
2023/01/07 04:25:18;;;;;;;31.30;23.00;;;10.40;99.90;;;;;;5125195;27;20034;-59
2023/01/07 04:27:43;;;;;;;33.08;22.85;;;10.30;99.90;;;;;;5144058;27;20049;-59
2023/01/07 04:30:10;;;;;;;31.48;22.70;;;10.30;99.90;;;;;;5142804;27;20041;-60
2023/01/07 04:32:35;;;;;;;34.17;22.35;;;10.30;99.90;;;;;;5126734;27;20092;-59
2023/01/07 04:35:01;;;;;;;30.27;22.08;;;10.30;99.90;;;;;;5143376;27;20154;-59
2023/01/07 04:37:26;;;;;;;33.85;21.10;;;10.30;99.90;;;;;;5148006;27;20039;-59
2023/01/07 04:39:52;;;;;;;30.02;21.40;;;10.40;99.90;;;;;;5148599;27;20046;-58
2023/01/07 04:42:17;;;;;;;31.55;21.80;;;10.40;99.90;;;;;;5148991;27;20031;-59
2023/01/07 04:44:43;;;;;;;34.05;22.10;;;10.30;99.90;;;;;;5147481;27;20027;-59
2023/01/07 04:47:08;;;;;;;30.90;20.90;;;10.30;99.90;;;;;;5148893;27;20155;-59
2023/01/07 04:49:34;;;;;;;30.42;21.25;;;10.30;99.90;;;;;;5129466;27;20315;-57
2023/01/07 04:52:00;;;;;;;31.60;20.45;;;10.30;99.90;;;;;;5128492;27;20494;-60
2023/01/07 04:54:25;;;;;;;28.73;20.83;;;10.20;99.90;;;;;;5149042;27;20733;-58
2023/01/07 04:56:51;;;;;;;32.33;20.80;;;10.30;99.90;;;;;;5148776;27;20442;-58
2023/01/07 04:59:16;;;;;;;29.42;20.50;;;10.20;99.90;;;;;;5132527;27;20126;-59
2023/01/07 05:01:42;;;;;;;28.88;19.55;;;10.20;99.90;;;;;;5148371;27;20068;-59
2023/01/07 05:04:07;;;;;;;28.77;19.45;;;10.20;99.90;;;;;;5147079;27;20039;-59
2023/01/07 05:06:33;;;;;;;33.35;21.25;;;10.20;99.90;;;;;;5146980;27;20107;-60
2023/01/07 05:08:58;;;;;;;28.17;18.90;;;10.20;99.90;;;;;;5146398;27;20118;-60
2023/01/07 05:11:24;;;;;;;29.83;19.10;;;10.20;99.90;;;;;;5148546;27;20302;-60
2023/01/07 05:13:50;;;;;;;28.88;20.20;;;10.20;99.90;;;;;;5128231;27;20038;-58
2023/01/07 05:16:16;;;;;;;30.65;19.77;;;10.20;99.90;;;;;;5147677;27;20115;-58
2023/01/07 05:18:42;;;;;;;26.88;19.02;;;10.20;99.90;;;;;;5148038;27;20063;-58
2023/01/07 05:21:09;;;;;;;24.20;17.67;;;10.20;99.90;;;;;;5146800;27;20070;-59
2023/01/07 05:23:35;;;;;;;29.38;17.52;;;10.20;99.90;;;;;;5129003;27;20035;-59
2023/01/07 05:26:01;;;;;;;30.50;18.55;;;10.10;99.90;;;;;;5148738;27;20048;-59
2023/01/07 05:28:26;;;;;;;25.25;17.92;;;10.10;99.90;;;;;;5147380;27;21007;-59
2023/01/07 05:30:52;;;;;;;24.63;16.95;;;10.10;99.90;;;;;;5147344;27;20038;-58
2023/01/07 05:33:17;;;;;;;27.00;16.92;;;10.10;99.90;;;;;;5147683;27;20503;-59
2023/01/07 05:35:45;;;;;;;26.17;17.67;;;10.10;99.90;;;;;;5146496;27;20488;-60
2023/01/07 05:38:11;;;;;;;25.63;16.55;;;10.10;99.90;;;;;;5146927;27;20050;-60
2023/01/07 05:40:36;;;;;;;28.77;17.25;;;10.10;99.90;;;;;;5148021;27;20049;-60
2023/01/07 05:43:02;;;;;;;26.45;16.70;;;10.10;99.90;;;;;;5146905;27;20046;-59
2023/01/07 05:45:28;;;;;;;25.65;16.70;;;10.10;99.90;;;;;;5145895;27;20232;-58
2023/01/07 05:47:53;;;;;;;21.90;15.50;;;10.10;99.90;;;;;;5147058;27;20045;-57
2023/01/07 05:50:19;;;;;;;27.08;16.98;;;10.10;99.90;;;;;;5144997;27;20100;-57
2023/01/07 05:52:44;;;;;;;24.70;17.20;;;10.10;99.90;;;;;;5146479;27;20410;-58
2023/01/07 05:55:10;;;;;;;24.63;15.63;;;10.10;99.90;;;;;;5147146;27;20046;-58
2023/01/07 05:57:36;;;;;;;20.17;15.25;;;10.10;99.90;;;;;;5146877;27;20130;-58
2023/01/07 06:00:01;;;;;;;24.60;14.93;;;10.10;99.90;;;;;;5145368;27;20091;-57
2023/01/07 06:02:27;;;;;;;31.63;14.98;;;10.10;99.90;;;;;;5127833;27;20095;-58
2023/01/07 06:04:53;;;;;;;22.63;14.65;;;10.10;99.90;;;;;;5144364;27;20467;-58
2023/01/07 06:07:18;;;;;;;22.88;15.07;;;10.20;99.90;;;;;;5146484;27;20505;-59
2023/01/07 06:09:44;;;;;;;22.02;14.00;;;10.20;99.90;;;;;;5146920;27;20043;-58
2023/01/07 06:12:09;;;;;;;20.55;14.63;;;10.10;99.90;;;;;;5146327;27;20035;-57
2023/01/07 06:14:35;;;;;;;23.05;14.43;;;10.10;99.90;;;;;;5144525;27;20039;-59
2023/01/07 06:17:00;;;;;;;19.90;14.13;;;10.20;99.90;;;;;;5128160;27;20043;-59
2023/01/07 06:19:26;;;;;;;23.67;13.40;;;10.20;99.90;;;;;;5146983;27;20139;-59
2023/01/07 06:21:52;;;;;;;17.15;11.98;;;10.20;99.90;;;;;;5144998;27;20047;-59
2023/01/07 06:24:17;;;;;;;21.23;14.23;;;10.20;99.90;;;;;;5145214;27;20034;-58
2023/01/07 06:26:43;;;;;;;20.83;13.27;;;10.20;99.90;;;;;;5146818;27;20045;-57
2023/01/07 06:29:09;;;;;;;18.42;12.52;;;10.20;99.90;;;;;;5145319;27;20042;-59
2023/01/07 06:31:35;;;;;;;20.48;12.48;;;10.20;99.90;;;;;;5146323;27;20034;-58
2023/01/07 06:34:01;;;;;;;20.48;13.18;;;10.20;99.90;;;;;;5145500;27;20043;-58
2023/01/07 06:36:26;;;;;;;21.17;13.25;;;10.20;99.90;;;;;;5145229;27;20042;-58
2023/01/07 06:38:52;;;;;;;20.88;12.88;;;10.20;99.90;;;;;;5146105;27;20022;-59
2023/01/07 06:41:17;;;;;;;19.55;12.80;;;10.20;99.90;;;;;;5146007;27;20674;-58
2023/01/07 06:43:43;;;;;;;19.48;12.35;;;10.20;99.90;;;;;;5145640;27;20734;-60
2023/01/07 06:46:08;;;;;;;20.60;12.38;;;10.10;99.90;;;;;;5120468;27;20407;-60
2023/01/07 06:48:34;;;;;;;22.00;12.50;;;10.10;99.90;;;;;;5125829;27;20038;-59
2023/01/07 06:50:59;;;;;;;16.25;11.68;;;10.10;99.90;;;;;;5134896;27;20272;-58
2023/01/07 06:53:25;;;;;;;18.98;12.23;;;10.10;99.90;;;;;;5145496;27;20103;-58
2023/01/07 06:55:51;;;;;;;18.15;12.75;;;10.10;99.90;;;;;;5146324;27;20046;-58
2023/01/07 06:58:16;;;;;;;17.08;11.73;;;10.00;99.90;;;;;;5144036;27;20052;-58
2023/01/07 07:00:42;;;;;;;19.00;12.77;;;10.00;99.90;;;;;;5144087;27;20576;-58
2023/01/07 07:03:08;;;;;;;19.35;11.95;;;10.00;99.90;;;;;;5127076;27;20045;-59
2023/01/07 07:05:34;;;;;;;15.65;11.20;;;10.00;99.90;;;;;;5125795;27;20150;-59
2023/01/07 07:08:00;;;;;;;18.15;10.68;;;10.00;99.90;;;;;;5145128;27;20045;-59
2023/01/07 07:10:26;;;;;;;18.38;11.30;;;10.00;99.90;;;;;;5146375;27;20105;-59
2023/01/07 07:12:51;;;;;;;15.45;11.10;;;10.00;99.90;;;;;;5145796;27;20818;-59
2023/01/07 07:15:17;;;;;;;16.23;10.60;;;10.00;99.90;;;;;;5143963;27;20063;-58
2023/01/07 07:17:43;;;;;;;19.48;11.18;;;10.00;99.90;;;;;;5146029;27;20031;-59
2023/01/07 07:20:09;;;;;;;16.40;10.35;;;10.00;99.90;;;;;;5143792;27;20039;-58
2023/01/07 07:22:34;;;;;;;15.85;10.60;;;10.00;99.90;;;;;;5144894;27;20117;-58
2023/01/07 07:25:00;;;;;;;17.20;10.88;;;10.10;99.90;;;;;;5144694;27;20042;-58
2023/01/07 07:27:25;;;;;;;20.25;10.25;;;10.10;99.90;;;;;;5127215;27;20071;-58
2023/01/07 07:29:51;;;;;;;16.77;10.85;;;10.10;99.90;;;;;;5143905;27;20087;-58
2023/01/07 07:32:16;;;;;;;20.83;10.90;;;10.10;99.90;;;;;;5126991;27;20045;-59
2023/01/07 07:34:42;;;;;;;18.58;10.50;;;10.10;99.90;;;;;;5125538;27;20035;-59
2023/01/07 07:37:08;;;;;;;15.20;10.30;;;10.10;99.90;;;;;;5143986;27;20038;-58
2023/01/07 07:39:33;;;;;;;15.52;11.02;;;10.00;99.90;;;;;;5145400;27;20050;-57
2023/01/07 07:42:02;;;;;;;13.70;10.27;;;10.00;99.90;;;;;;5126442;27;20238;-59
2023/01/07 07:44:28;;;;;;;17.23;9.90;;;10.00;99.90;;;;;;5142971;27;20782;-59
2023/01/07 07:46:53;;;;;;;15.63;9.73;;;10.00;99.90;;;;;;5145608;27;20129;-59
2023/01/07 07:49:19;;;;;;;15.95;10.20;;;10.00;99.90;;;;;;5145638;27;20038;-58
2023/01/07 07:51:44;;;;;;;15.55;9.38;;;10.00;99.90;;;;;;5143539;27;20620;-58
2023/01/07 07:54:10;;;;;;;17.23;9.82;;;10.00;99.90;;;;;;5143276;27;20476;-59
2023/01/07 07:56:35;;;;;;;15.02;9.52;;;10.00;99.90;;;;;;5145557;27;20042;-58
2023/01/07 07:59:01;;;;;;;16.70;9.77;;;10.00;99.90;;;;;;5144848;27;20037;-58
2023/01/07 08:01:26;;;;;;;17.60;10.07;;;9.90;99.90;;;;;;5144261;27;20400;-59
2023/01/07 08:03:52;;;;;;;15.55;9.48;;;9.90;99.90;;;;;;5143812;27;20185;-58
2023/01/07 08:06:18;;;;;;;15.13;8.93;;;9.90;99.90;;;;;;5143979;27;20813;-59
2023/01/07 08:08:44;;;;;;;14.10;8.50;;;9.90;99.90;;;;;;5144216;27;20489;-59
2023/01/07 08:11:10;;;;;;;12.85;8.60;;;9.90;99.90;;;;;;5148541;27;20042;-60
2023/01/07 08:13:35;;;;;;;16.45;8.77;;;9.90;99.90;;;;;;5148459;27;20429;-57
2023/01/07 08:16:01;;;;;;;15.68;7.93;;;9.90;99.90;;;;;;5148553;27;20222;-58
2023/01/07 08:18:26;;;;;;;14.07;8.23;;;10.00;99.90;;;;;;5130641;27;20125;-59
2023/01/07 08:20:54;;;;;;;17.65;8.02;;;9.90;99.90;;;;;;5147994;27;20145;-58
2023/01/07 08:23:20;;;;;;;13.38;7.78;;;9.90;99.90;;;;;;5147998;27;20552;-58
2023/01/07 08:25:45;;;;;;;10.57;6.60;;;9.90;99.90;;;;;;5149365;27;20103;-59
2023/01/07 08:28:11;;;;;;;11.85;7.40;;;9.90;99.90;;;;;;5148420;27;20030;-59
2023/01/07 08:30:37;;;;;;;12.73;6.78;;;9.90;99.90;;;;;;5148367;27;20031;-58
2023/01/07 08:33:05;;;;;;;13.38;7.55;;;9.90;99.90;;;;;;5148550;27;20030;-58
2023/01/07 08:35:31;;;;;;;12.90;6.88;;;9.90;99.90;;;;;;5129111;27;20042;-59
2023/01/07 08:38:01;;;;;;;14.38;7.72;;;9.90;99.90;;;;;;5148274;27;20043;-59
2023/01/07 08:40:27;;;;;;;12.20;7.10;;;9.90;99.90;;;;;;5149229;27;20521;-58
2023/01/07 08:42:56;;;;;;;10.98;6.75;;;9.90;99.90;;;;;;5147859;27;20069;-59
2023/01/07 08:45:21;;;;;;;15.35;6.50;;;9.90;99.90;;;;;;5146825;27;20038;-59
2023/01/07 08:47:47;;;;;;;11.75;6.43;;;9.90;99.90;;;;;;5130209;27;20724;-59
2023/01/07 08:50:13;;;;;;;12.48;6.38;;;10.00;99.90;;;;;;5147459;27;20077;-59
2023/01/07 08:52:39;;;;;;;14.68;6.43;;;10.00;99.90;;;;;;5147873;27;20103;-59
2023/01/07 08:55:05;;;;;;;10.07;6.32;;;10.10;99.90;;;;;;5146776;27;20031;-59
2023/01/07 08:57:31;;;;;;;9.27;6.10;;;10.10;99.90;;;;;;5133400;27;20043;-60
2023/01/07 08:59:56;;;;;;;11.13;6.00;;;10.20;99.90;;;;;;5137997;27;20216;-58
2023/01/07 09:02:22;;;;;;;15.00;6.32;;;10.20;99.90;;;;;;5127893;27;20054;-59
2023/01/07 09:04:47;;;;;;;11.23;6.25;;;10.20;99.90;;;;;;5127045;27;20039;-59
2023/01/07 09:07:13;;;;;;;9.05;5.75;;;10.20;99.90;;;;;;5147228;27;20256;-58
2023/01/07 09:09:38;;;;;;;9.98;5.55;;;10.20;99.90;;;;;;5148214;27;20509;-59
2023/01/07 09:12:05;;;;;;;12.07;6.07;;;10.10;99.90;;;;;;5148408;27;20070;-57
2023/01/07 09:14:31;;;;;;;13.15;6.45;;;10.10;99.90;;;;;;5113104;27;20423;-58
2023/01/07 09:16:56;;;;;;;11.98;5.75;;;10.00;99.90;;;;;;5134850;27;20043;-59
2023/01/07 09:19:22;;;;;;;15.30;6.35;;;10.00;99.90;;;;;;5117647;27;20031;-59
2023/01/07 09:21:47;;;;;;;11.88;5.50;;;10.00;99.90;;;;;;5139229;27;20095;-58
2023/01/07 09:24:13;;;;;;;12.80;6.65;;;10.00;99.90;;;;;;5126747;27;20220;-59
2023/01/07 09:26:38;;;;;;;12.90;5.70;;;10.00;99.90;;;;;;5134347;27;20066;-59
2023/01/07 09:29:04;;;;;;;10.80;6.18;;;10.00;99.90;;;;;;5137523;27;20778;-59
2023/01/07 09:31:30;;;;;;;14.43;5.60;;;9.90;99.90;;;;;;5137420;27;20042;-59
2023/01/07 09:33:55;;;;;;;10.32;6.28;;;9.90;99.90;;;;;;5114877;27;20031;-59
2023/01/07 09:36:21;;;;;;;12.15;5.50;;;9.90;99.90;;;;;;5138008;27;20095;-59
2023/01/07 09:38:46;;;;;;;10.50;6.03;;;9.90;99.90;;;;;;5135693;27;20087;-59
2023/01/07 09:41:37;;;;;;;10.35;5.50;;;9.90;99.90;;;;;;5134332;27;20031;-59
2023/01/07 09:44:30;;;;;;;9.65;5.40;;;9.90;99.90;;;;;;5133772;27;20553;-59
2023/01/07 09:46:56;;;;;;;11.02;5.60;;;9.90;99.90;;;;;;5137226;27;20093;-59
2023/01/07 09:49:26;;;;;;;9.02;4.82;;;9.90;99.90;;;;;;5133354;27;20279;-59
2023/01/07 09:51:57;;;;;;;12.10;5.35;;;9.90;99.90;;;;;;5136548;27;20075;-58
2023/01/07 09:54:31;;;;;;;10.80;5.50;;;9.90;99.90;;;;;;5117732;27;20609;-58
2023/01/07 09:56:57;;;;;;;9.07;5.13;;;9.90;99.90;;;;;;5131885;27;20080;-58
2023/01/07 09:59:23;;;;;;;9.00;4.63;;;9.90;99.90;;;;;;5117739;27;20035;-59
2023/01/07 10:01:55;;;;;;;8.48;5.00;;;9.90;99.90;;;;;;5132842;27;20126;-58
2023/01/07 10:04:37;;;;;;;9.10;4.32;;;9.90;99.90;;;;;;5134885;27;20027;-58
2023/01/07 10:07:19;;;;;;;10.55;4.82;;;10.00;99.90;;;;;;5134764;27;20433;-59
2023/01/07 10:09:54;;;;;;;16.55;4.65;;;10.00;99.90;;;;;;5137725;27;20088;-58
2023/01/07 10:12:41;;;;;;;9.40;5.13;;;10.00;99.90;;;;;;5135442;27;20038;-58
2023/01/07 10:15:20;;;;;;;9.15;4.50;;;10.00;99.90;;;;;;5134405;27;20042;-58
2023/01/07 10:18:33;;;;;;;8.60;4.53;;;10.00;99.90;;;;;;5117309;27;20039;-57
2023/01/07 10:21:40;;;;;;;8.40;4.20;;;10.00;99.90;;;;;;5137491;27;20550;-58
2023/01/07 10:24:19;;;;;;;8.07;4.47;;;10.00;99.90;;;;;;5137163;27;20047;-59
2023/01/07 10:26:49;;;;;;;8.80;4.32;;;10.00;99.90;;;;;;5145427;27;20044;-58
2023/01/07 10:29:22;;;;;;;8.85;4.47;;;10.00;99.90;;;;;;5141537;27;20035;-59
2023/01/07 10:31:50;;;;;;;10.30;4.07;;;10.10;99.90;;;;;;5107831;27;20151;-59
2023/01/07 10:34:20;;;;;;;7.97;3.80;;;10.00;99.90;;;;;;5140884;27;20118;-58
2023/01/07 10:37:33;;;;;;;7.45;3.90;;;10.00;99.90;;;;;;5122029;27;20050;-57
2023/01/07 10:40:24;;;;;;;9.98;3.90;;;10.00;99.90;;;;;;5144850;27;20053;-59
2023/01/07 10:43:27;;;;;;;8.90;3.63;;;10.10;99.90;;;;;;5126881;27;20047;-59
2023/01/07 10:46:11;;;;;;;8.27;3.80;;;10.10;99.90;;;;;;5140117;27;20068;-59
2023/01/07 10:48:40;;;;;;;;;;;10.20;99.90;;;;;;5145284;27;20035;-59
2023/01/07 10:51:11;;;;;;;7.22;3.25;;;10.30;99.90;;;;;;5140214;27;20382;-57
2023/01/07 10:54:08;;;;;;;7.68;3.15;;;10.30;99.90;;;;;;5144798;27;20103;-58
2023/01/07 10:56:49;;;;;;;11.95;3.40;;;10.30;99.90;;;;;;5146255;27;20039;-58
2023/01/07 10:59:18;;;;;;;7.15;3.38;;;10.30;99.90;;;;;;5137992;27;20371;-58
2023/01/07 11:01:51;;;;;;;8.43;3.60;;;10.40;99.90;;;;;;5129713;27;20046;-58
2023/01/07 11:04:17;;;;;;;6.97;3.23;;;10.40;99.90;;;;;;5133542;27;20337;-57
2023/01/07 11:07:03;;;;;;;7.30;3.22;;;10.50;99.90;;;;;;5131384;27;20071;-57
2023/01/07 11:09:35;;;;;;;6.18;3.00;;;10.50;99.90;;;;;;5111542;27;20046;-57
2023/01/07 11:12:23;;;;;;;8.18;3.13;;;10.50;99.90;;;;;;5134445;27;20577;-58
2023/01/07 11:14:52;;;;;;;6.88;2.80;;;10.50;99.90;;;;;;5133934;27;20078;-59
2023/01/07 11:17:37;;;;;;;7.32;2.78;;;10.50;99.90;;;;;;5092823;27;20058;-58
2023/01/07 11:20:04;;;;;;;7.10;2.63;;;10.50;99.90;;;;;;5144327;27;20494;-59
2023/01/07 11:22:33;;;;;;;7.70;3.08;;;10.50;99.90;;;;;;5137085;27;20394;-58
2023/01/07 11:25:01;;;;;;;5.63;2.60;;;10.60;99.90;;;;;;5113949;27;20035;-59
2023/01/07 11:27:33;;;;;;;6.32;2.90;;;10.60;99.90;;;;;;5106364;27;20106;-59
2023/01/07 11:30:06;;;;;;;6.63;2.72;;;10.70;99.90;;;;;;5125063;27;20039;-57
2023/01/07 11:32:37;;;;;;;6.82;2.53;;;10.70;99.90;;;;;;5146052;27;20546;-58
2023/01/07 11:35:17;;;;;;;9.80;2.60;;;10.80;99.90;;;;;;5110414;27;20043;-59
2023/01/07 11:37:45;;;;;;;6.85;2.80;;;10.70;99.90;;;;;;5144176;27;20485;-57
2023/01/07 11:40:11;;;;;;;6.70;2.63;;;10.80;99.90;;;;;;5137764;27;20530;-60
2023/01/07 11:42:46;;;;;;;6.93;2.30;;;10.80;99.90;;;;;;5134714;27;20039;-60
2023/01/07 11:45:19;;;;;;;6.13;2.45;;;10.80;99.90;;;;;;5137551;27;20049;-58
2023/01/07 11:47:48;;;;;;;5.43;2.70;;;10.70;99.90;;;;;;5120784;27;20560;-59
2023/01/07 11:50:32;;;;;;;7.13;2.47;;;10.70;99.90;;;;;;5136725;27;20039;-59
2023/01/07 11:53:01;;;;;;;6.38;2.80;;;10.80;99.90;;;;;;5127598;27;20055;-60
2023/01/07 11:55:28;;;;;;;5.97;2.50;;;10.70;99.90;;;;;;5123732;27;20035;-60
2023/01/07 11:57:55;;;;;;;5.32;2.30;;;10.70;99.90;;;;;;5110424;27;20039;-59
2023/01/07 12:00:21;;;;;;;6.07;2.40;;;10.70;99.90;;;;;;5118977;27;20047;-57
2023/01/07 12:03:17;;;;;;;5.53;2.53;;;10.80;99.90;;;;;;5111583;28;20057;-58
2023/01/07 12:05:43;;;;;;;5.15;2.30;;;10.80;99.90;;;;;;5134851;27;20035;-60
2023/01/07 12:08:21;;;;;;;5.78;2.47;;;10.80;99.90;;;;;;5106412;27;20679;-59
2023/01/07 12:10:55;;;;;;;4.10;2.05;;;10.80;99.90;;;;;;5135604;27;20437;-60
2023/01/07 12:13:24;;;;;;;6.95;2.42;;;10.80;99.90;;;;;;5133915;27;20662;-61
2023/01/07 12:16:01;;;;;;;5.97;2.28;;;10.80;99.90;;;;;;5094970;27;20047;-60
2023/01/07 12:18:43;;;;;;;5.43;2.13;;;10.80;99.90;;;;;;5111091;28;20049;-60
2023/01/07 12:21:24;;;;;;;5.20;2.30;;;10.80;99.90;;;;;;5135279;27;20096;-59
2023/01/07 12:24:14;;;;;;;6.05;2.35;;;10.80;99.90;;;;;;5139601;27;20039;-60
2023/01/07 12:27:05;;;;;;;5.82;2.17;;;10.80;99.90;;;;;;5136386;27;20454;-59
2023/01/07 12:29:56;;;;;;;5.32;2.28;;;10.80;99.90;;;;;;5135499;27;20034;-61
2023/01/07 12:32:38;;;;;;;6.35;2.20;;;10.80;99.90;;;;;;5130847;27;20039;-59
2023/01/07 12:35:17;;;;;;;6.30;2.67;;;10.80;99.90;;;;;;5117232;27;20461;-62
2023/01/07 12:37:49;;;;;;;5.60;1.98;;;10.90;99.90;;;;;;5116783;27;20449;-58
2023/01/07 12:40:35;;;;;;;7.65;2.10;;;11.00;99.90;;;;;;5143299;27;20040;-60
2023/01/07 12:43:09;;;;;;;4.20;1.67;;;11.10;99.90;;;;;;5116233;27;20075;-59
2023/01/07 12:45:44;;;;;;;;;;;11.20;99.90;;;;;;5122763;27;20308;-58
2023/01/07 12:48:27;;;;;;;3.97;1.73;;;11.20;99.90;;;;;;5132516;27;19922;-60
2023/01/07 12:50:56;;;;;;;5.45;2.00;;;11.20;99.90;;;;;;5141384;27;21067;-60
2023/01/07 12:53:35;;;;;;;4.13;1.50;;;11.20;99.90;;;;;;5121418;27;20400;-61
2023/01/07 12:56:25;;;;;;;5.32;1.80;;;11.20;99.90;;;;;;5098837;27;20473;-60
2023/01/07 12:59:04;;;;;;;6.53;2.22;;;11.20;99.90;;;;;;5128048;27;20058;-59